createdAt,value
2022-08-03T00:00:32.679Z,100552.00
2022-08-03T00:03:00.258Z,100554.00
2022-08-03T00:05:27.857Z,100557.00
2022-08-03T00:07:55.420Z,100547.00
2022-08-03T00:10:23.714Z,100553.00
2022-08-03T00:12:51.203Z,100548.00
2022-08-03T00:15:19.237Z,100543.00
2022-08-03T00:17:53.553Z,100542.00
2022-08-03T00:20:25.385Z,100533.00
2022-08-03T00:22:52.865Z,100531.00
2022-08-03T00:25:20.530Z,100537.00
2022-08-03T00:27:48.468Z,100533.00
2022-08-03T00:30:18.666Z,100526.00
2022-08-03T00:32:47.558Z,100530.00
2022-08-03T00:35:36.929Z,100532.00
2022-08-03T00:38:03.927Z,100527.00
2022-08-03T00:40:33.199Z,100540.00
2022-08-03T00:43:05.835Z,100535.00
2022-08-03T00:45:39.852Z,100531.00
2022-08-03T00:48:29.767Z,100532.00
2022-08-03T00:51:00.205Z,100530.00
2022-08-03T00:53:28.895Z,100533.00
2022-08-03T00:55:56.538Z,100534.00
2022-08-03T00:58:24.683Z,100532.00
2022-08-03T01:00:52.443Z,100529.00
2022-08-03T01:03:20.190Z,100526.00
2022-08-03T01:06:08.631Z,100528.00
2022-08-03T01:08:58.165Z,100532.00
2022-08-03T01:11:59.938Z,100523.00
2022-08-03T01:14:47.435Z,100514.00
2022-08-03T01:17:28.993Z,100519.00
2022-08-03T01:20:13.940Z,100523.00
2022-08-03T01:23:13.418Z,100518.00
2022-08-03T01:26:04.735Z,100518.00
2022-08-03T01:28:59.721Z,100513.00
2022-08-03T01:33:00.340Z,100514.00
2022-08-03T01:34:35.807Z,100508.00
2022-08-03T01:37:09.559Z,100510.00
2022-08-03T01:39:41.414Z,100514.00
2022-08-03T01:42:10.954Z,100505.00
2022-08-03T01:44:44.385Z,100514.00
2022-08-03T01:47:13.079Z,100508.00
2022-08-03T01:49:45.461Z,100514.00
2022-08-03T01:52:17.895Z,100512.00
2022-08-03T01:54:50.262Z,100522.00
2022-08-03T01:57:19.883Z,100508.00
2022-08-03T01:59:50.149Z,100507.00
2022-08-03T02:02:32.235Z,100514.00
2022-08-03T02:05:05.119Z,100517.00
2022-08-03T02:07:40.581Z,100520.00
2022-08-03T02:10:09.503Z,100519.00
2022-08-03T02:12:39.107Z,100516.00
2022-08-03T02:15:08.413Z,100509.00
2022-08-03T02:17:40.315Z,100515.00
2022-08-03T02:20:10.900Z,100509.00
2022-08-03T02:22:41.823Z,100513.00
2022-08-03T02:25:12.083Z,100519.00
2022-08-03T02:27:49.011Z,100515.00
2022-08-03T02:30:16.902Z,100516.00
2022-08-03T02:32:52.476Z,100514.00
2022-08-03T02:35:23.559Z,100516.00
2022-08-03T02:38:00.431Z,100509.00
2022-08-03T02:40:31.320Z,100506.00
2022-08-03T02:43:04.224Z,100505.00
2022-08-03T02:45:36.488Z,100503.00
2022-08-03T02:48:07.303Z,100501.00
2022-08-03T02:50:36.352Z,100496.00
2022-08-03T02:53:04.846Z,100498.00
2022-08-03T02:55:35.758Z,100499.00
2022-08-03T02:58:12.821Z,100501.00
2022-08-03T03:00:44.764Z,100505.00
2022-08-03T03:03:14.842Z,100493.00
2022-08-03T03:05:52.289Z,100492.00
2022-08-03T03:08:28.856Z,100488.00
2022-08-03T03:11:02.185Z,100487.00
2022-08-03T03:13:32.105Z,100491.00
2022-08-03T03:16:03.085Z,100483.00
2022-08-03T03:18:33.578Z,100491.00
2022-08-03T03:21:04.313Z,100486.00
2022-08-03T03:23:36.371Z,100491.00
2022-08-03T03:26:04.979Z,100482.00
2022-08-03T03:28:32.839Z,100490.00
2022-08-03T03:31:01.060Z,100488.00
2022-08-03T03:33:28.854Z,100494.00
2022-08-03T03:35:58.147Z,100489.00
2022-08-03T03:38:25.601Z,100482.00
2022-08-03T03:40:53.571Z,100486.00
2022-08-03T03:43:23.655Z,100484.00
2022-08-03T03:45:53.983Z,100484.00
2022-08-03T03:48:21.999Z,100483.00
2022-08-03T03:50:51.065Z,100482.00
2022-08-03T03:53:19.126Z,100480.00
2022-08-03T03:55:59.389Z,100494.00
2022-08-03T03:58:32.137Z,100494.00
2022-08-03T04:01:00.520Z,100496.00
2022-08-03T04:03:28.570Z,100496.00
2022-08-03T04:06:14.770Z,100496.00
2022-08-03T04:09:00.613Z,100498.00
2022-08-03T04:11:39.996Z,100486.00
2022-08-03T04:14:13.819Z,100489.00
2022-08-03T04:16:46.802Z,100501.00
2022-08-03T04:19:31.431Z,100503.00
2022-08-03T04:22:04.730Z,100497.00
2022-08-03T04:24:43.151Z,100499.00
2022-08-03T04:27:15.833Z,100500.00
2022-08-03T04:29:48.793Z,100504.00
2022-08-03T04:32:18.007Z,100506.00
2022-08-03T04:34:46.483Z,100507.00
2022-08-03T04:37:43.731Z,100505.00
2022-08-03T04:40:16.452Z,100511.00
2022-08-03T04:42:51.536Z,100512.00
2022-08-03T04:45:20.269Z,100506.00
2022-08-03T04:47:48.543Z,100502.00
2022-08-03T04:50:21.183Z,100505.00
2022-08-03T04:53:05.773Z,100508.00
2022-08-03T04:55:35.532Z,100511.00
2022-08-03T04:58:04.326Z,100508.00
2022-08-03T05:00:32.146Z,100508.00
2022-08-03T05:02:59.960Z,100515.00
2022-08-03T05:05:34.673Z,100515.00
2022-08-03T05:08:15.518Z,100519.00
2022-08-03T05:10:47.301Z,100525.00
2022-08-03T05:13:15.431Z,100521.00
2022-08-03T05:15:45.433Z,100528.00
2022-08-03T05:18:14.314Z,100531.00
2022-08-03T05:20:42.444Z,100528.00
2022-08-03T05:23:09.847Z,100525.00
2022-08-03T05:25:37.208Z,100518.00
2022-08-03T05:28:07.019Z,100524.00
2022-08-03T05:30:37.044Z,100524.00
2022-08-03T05:33:05.045Z,100518.00
2022-08-03T05:36:01.223Z,100522.00
2022-08-03T05:38:28.036Z,100519.00
2022-08-03T05:41:22.814Z,100523.00
2022-08-03T05:43:46.283Z,100514.00
2022-08-03T05:46:14.520Z,100518.00
2022-08-03T05:48:43.574Z,100510.00
2022-08-03T05:51:14.122Z,100514.00
2022-08-03T05:53:43.019Z,100505.00
2022-08-03T05:56:14.119Z,100513.00
2022-08-03T05:58:49.439Z,100518.00
2022-08-03T06:01:18.181Z,100518.00
2022-08-03T06:03:46.904Z,100513.00
2022-08-03T06:06:14.932Z,100516.00
2022-08-03T06:08:44.058Z,100512.00
2022-08-03T06:11:12.471Z,100519.00
2022-08-03T06:13:40.673Z,100517.00
2022-08-03T06:16:08.682Z,100515.00
2022-08-03T06:18:36.975Z,100512.00
2022-08-03T06:21:11.075Z,100517.00
2022-08-03T06:23:53.238Z,100518.00
2022-08-03T06:26:25.246Z,100515.00
2022-08-03T06:28:54.396Z,100511.00
2022-08-03T06:31:25.426Z,100506.00
2022-08-03T06:34:32.505Z,100511.00
2022-08-03T06:36:40.909Z,100520.00
2022-08-03T06:39:08.665Z,100517.00
2022-08-03T06:41:37.430Z,100511.00
2022-08-03T06:44:10.414Z,100515.00
2022-08-03T06:46:38.448Z,100517.00
2022-08-03T06:49:07.318Z,100514.00
2022-08-03T06:52:05.765Z,100519.00
2022-08-03T06:54:24.636Z,100521.00
2022-08-03T06:56:52.853Z,100523.00
2022-08-03T07:00:08.952Z,100527.00
2022-08-03T07:02:10.000Z,100525.00
2022-08-03T07:04:38.180Z,100534.00
2022-08-03T07:07:06.537Z,100532.00
2022-08-03T07:09:34.966Z,100529.00
2022-08-03T07:12:04.489Z,100532.00
2022-08-03T07:14:35.498Z,100531.00
2022-08-03T07:17:04.591Z,100539.00
2022-08-03T07:19:39.782Z,100537.00
2022-08-03T07:22:08.917Z,100537.00
2022-08-03T07:24:36.849Z,100537.00
2022-08-03T07:27:05.084Z,100536.00
2022-08-03T07:29:34.666Z,100536.00
2022-08-03T07:32:03.929Z,100535.00
2022-08-03T07:34:32.222Z,100543.00
2022-08-03T07:37:00.252Z,100546.00
2022-08-03T07:39:28.315Z,100546.00
2022-08-03T07:41:56.344Z,100543.00
2022-08-03T07:44:24.276Z,100546.00
2022-08-03T07:46:52.051Z,100533.00
2022-08-03T07:49:20.049Z,100539.00
2022-08-03T07:52:07.971Z,100537.00
2022-08-03T07:54:38.607Z,100542.00
2022-08-03T07:57:06.750Z,100537.00
2022-08-03T07:59:49.142Z,100544.00
2022-08-03T08:02:23.350Z,100539.00
2022-08-03T08:04:51.360Z,100533.00
2022-08-03T08:07:19.337Z,100544.00
2022-08-03T08:09:48.848Z,100542.00
2022-08-03T08:12:16.937Z,100543.00
2022-08-03T08:14:47.764Z,100543.00
2022-08-03T08:17:15.819Z,100534.00
2022-08-03T08:19:47.525Z,100540.00
2022-08-03T08:22:29.957Z,100539.00
2022-08-03T08:24:59.789Z,100541.00
2022-08-03T08:28:29.190Z,100538.00
2022-08-03T08:30:20.455Z,100532.00
2022-08-03T08:32:49.283Z,100539.00
2022-08-03T08:35:18.185Z,100532.00
2022-08-03T08:37:50.754Z,100534.00
2022-08-03T08:40:22.611Z,100542.00
2022-08-03T08:42:58.543Z,100540.00
2022-08-03T08:45:27.874Z,100532.00
2022-08-03T08:48:00.406Z,100536.00
2022-08-03T08:50:30.991Z,100544.00
2022-08-03T08:53:04.037Z,100537.00
2022-08-03T08:55:58.730Z,100538.00
2022-08-03T08:58:23.689Z,100532.00
2022-08-03T09:00:52.277Z,100543.00
2022-08-03T09:03:25.273Z,100539.00
2022-08-03T09:06:00.969Z,100542.00
2022-08-03T09:08:31.195Z,100543.00
2022-08-03T09:10:58.764Z,100540.00
2022-08-03T09:13:26.678Z,100538.00
2022-08-03T09:16:18.285Z,100536.00
2022-08-03T09:18:49.161Z,100542.00
2022-08-03T09:21:33.333Z,100533.00
2022-08-03T09:24:07.119Z,100541.00
2022-08-03T09:26:39.026Z,100535.00
2022-08-03T09:29:14.353Z,100532.00
2022-08-03T09:31:47.434Z,100529.00
2022-08-03T09:34:17.901Z,100527.00
2022-08-03T09:36:47.657Z,100535.00
2022-08-03T09:39:21.514Z,100533.00
2022-08-03T09:42:18.350Z,100540.00
2022-08-03T09:44:51.832Z,100527.00
2022-08-03T09:47:32.762Z,100524.00
2022-08-03T09:50:09.153Z,100536.00
2022-08-03T09:52:49.702Z,100533.00
2022-08-03T09:56:34.962Z,100532.00
2022-08-03T09:58:14.611Z,100525.00
2022-08-03T10:01:05.245Z,100525.00
2022-08-03T10:04:03.276Z,100531.00
2022-08-03T10:06:28.861Z,100530.00
2022-08-03T10:09:07.188Z,100529.00
2022-08-03T10:11:40.892Z,100530.00
2022-08-03T10:14:19.171Z,100523.00
2022-08-03T10:16:48.648Z,100533.00
2022-08-03T10:19:16.970Z,100532.00
2022-08-03T10:21:54.490Z,100531.00
2022-08-03T10:24:29.102Z,100524.00
2022-08-03T10:27:05.811Z,100530.00
2022-08-03T10:29:39.516Z,100528.00
2022-08-03T10:32:43.646Z,100519.00
2022-08-03T10:35:21.634Z,100517.00
2022-08-03T10:38:00.418Z,100516.00
2022-08-03T10:40:49.367Z,100516.00
2022-08-03T10:43:29.152Z,100522.00
2022-08-03T10:45:57.291Z,100512.00
2022-08-03T10:48:26.708Z,100507.00
2022-08-03T10:50:54.928Z,100514.00
2022-08-03T10:53:40.684Z,100511.00
2022-08-03T10:56:53.410Z,100503.00
2022-08-03T11:00:02.969Z,100503.00
2022-08-03T11:03:09.626Z,100502.00
2022-08-03T11:05:41.757Z,100506.00
2022-08-03T11:08:31.616Z,100503.00
2022-08-03T11:11:24.314Z,100505.00
2022-08-03T11:14:11.525Z,100513.00
2022-08-03T11:16:46.153Z,100504.00
2022-08-03T11:19:20.966Z,100492.00
2022-08-03T11:21:51.495Z,100499.00
2022-08-03T11:24:37.565Z,100499.00
2022-08-03T11:27:33.166Z,100502.00
2022-08-03T11:30:03.499Z,100501.00
2022-08-03T11:32:48.289Z,100501.00
2022-08-03T11:35:35.793Z,100487.00
2022-08-03T11:38:07.446Z,100497.00
2022-08-03T11:40:40.797Z,100495.00
2022-08-03T11:43:31.958Z,100487.00
2022-08-03T11:46:28.650Z,100489.00
2022-08-03T11:49:10.481Z,100497.00
2022-08-03T11:51:41.048Z,100496.00
2022-08-03T11:54:08.961Z,100489.00
2022-08-03T11:56:50.800Z,100497.00
2022-08-03T11:59:22.192Z,100505.00
2022-08-03T12:01:51.380Z,100495.00
2022-08-03T12:04:19.364Z,100493.00
2022-08-03T12:07:07.123Z,100494.00
2022-08-03T12:09:36.358Z,100489.00
2022-08-03T12:12:04.312Z,100498.00
2022-08-03T12:14:48.492Z,100497.00
2022-08-03T12:17:17.779Z,100486.00
2022-08-03T12:19:45.735Z,100481.00
2022-08-03T12:22:16.340Z,100489.00
2022-08-03T12:24:46.787Z,100494.00
2022-08-03T12:27:25.451Z,100484.00
2022-08-03T12:29:58.761Z,100484.00
2022-08-03T12:32:31.192Z,100484.00
2022-08-03T12:35:01.881Z,100476.00
2022-08-03T12:37:30.233Z,100484.00
2022-08-03T12:40:10.120Z,100478.00
2022-08-03T12:42:40.647Z,100475.00
2022-08-03T12:45:29.423Z,100474.00
2022-08-03T12:47:59.684Z,100472.00
2022-08-03T12:50:36.387Z,100475.00
2022-08-03T12:53:07.848Z,100468.00
2022-08-03T12:55:57.267Z,100465.00
2022-08-03T12:58:35.247Z,100460.00
2022-08-03T13:01:09.174Z,100460.00
2022-08-03T13:03:55.963Z,100462.00
2022-08-03T13:06:25.750Z,100463.00
2022-08-03T13:09:06.153Z,100467.00
2022-08-03T13:11:57.913Z,100459.00
2022-08-03T13:14:23.703Z,100462.00
2022-08-03T13:16:51.471Z,100460.00
2022-08-03T13:19:19.099Z,100468.00
2022-08-03T13:21:53.362Z,100449.00
2022-08-03T13:24:32.975Z,100457.00
2022-08-03T13:27:21.918Z,100459.00
2022-08-03T13:29:49.256Z,100457.00
2022-08-03T13:32:16.955Z,100460.00
2022-08-03T13:34:44.593Z,100456.00
2022-08-03T13:37:12.560Z,100445.00
2022-08-03T13:39:58.025Z,100448.00
2022-08-03T13:42:30.179Z,100450.00
2022-08-03T13:44:57.970Z,100443.00
2022-08-03T13:47:25.806Z,100449.00
2022-08-03T13:49:59.610Z,100441.00
2022-08-03T13:52:32.091Z,100445.00
2022-08-03T13:55:00.371Z,100433.00
2022-08-03T13:58:04.084Z,100440.00
2022-08-03T14:00:27.532Z,100441.00
2022-08-03T14:03:04.065Z,100439.00
2022-08-03T14:05:36.107Z,100428.00
2022-08-03T14:08:06.485Z,100435.00
2022-08-03T14:10:40.526Z,100430.00
2022-08-03T14:13:08.688Z,100428.00
2022-08-03T14:15:37.742Z,100425.00
2022-08-03T14:18:12.617Z,100424.00
2022-08-03T14:20:50.228Z,100419.00
2022-08-03T14:23:22.085Z,100422.00
2022-08-03T14:25:52.814Z,100424.00
2022-08-03T14:28:25.144Z,100426.00
2022-08-03T14:30:54.731Z,100426.00
2022-08-03T14:33:22.925Z,100438.00
2022-08-03T14:35:52.028Z,100421.00
2022-08-03T14:38:20.022Z,100423.00
2022-08-03T14:40:49.434Z,100421.00
2022-08-03T14:43:23.209Z,100417.00
2022-08-03T14:45:53.816Z,100418.00
2022-08-03T14:50:30.653Z,100418.00
2022-08-03T14:51:11.937Z,100418.00
2022-08-03T14:53:40.260Z,100412.00
2022-08-03T14:56:10.747Z,100414.00
2022-08-03T14:58:38.946Z,100413.00
2022-08-03T15:02:04.776Z,100403.00
2022-08-03T15:03:55.208Z,100407.00
2022-08-03T15:06:22.926Z,100406.00
2022-08-03T15:09:06.308Z,100405.00
2022-08-03T15:11:38.898Z,100408.00
2022-08-03T15:14:09.438Z,100399.00
2022-08-03T15:16:38.637Z,100395.00
2022-08-03T15:20:01.682Z,100396.00
2022-08-03T15:21:53.993Z,100399.00
2022-08-03T15:24:21.904Z,100397.00
2022-08-03T15:26:49.671Z,100391.00
2022-08-03T15:30:09.363Z,100394.00
2022-08-03T15:32:09.137Z,100385.00
2022-08-03T15:34:37.273Z,100390.00
2022-08-03T15:37:16.375Z,100391.00
2022-08-03T15:39:59.518Z,100393.00
2022-08-03T15:42:33.197Z,100386.00
2022-08-03T15:45:03.908Z,100389.00
2022-08-03T15:47:34.380Z,100389.00
2022-08-03T15:50:05.336Z,100391.00
2022-08-03T15:52:35.607Z,100383.00
2022-08-03T15:55:03.497Z,100378.00
2022-08-03T15:57:31.064Z,100381.00
2022-08-03T16:00:01.302Z,100375.00
2022-08-03T16:02:28.869Z,100371.00
2022-08-03T16:04:56.280Z,100376.00
2022-08-03T16:07:59.044Z,100372.00
2022-08-03T16:10:30.768Z,100372.00
2022-08-03T16:13:01.274Z,100372.00
2022-08-03T16:15:29.183Z,100373.00
2022-08-03T16:17:56.945Z,100374.00
2022-08-03T16:20:30.827Z,100367.00
2022-08-03T16:23:11.580Z,100372.00
2022-08-03T16:25:49.232Z,100373.00
2022-08-03T16:28:17.850Z,100370.00
2022-08-03T16:30:46.923Z,100365.00
2022-08-03T16:33:17.819Z,100368.00
2022-08-03T16:35:47.113Z,100364.00
2022-08-03T16:38:18.869Z,100363.00
2022-08-03T16:40:52.210Z,100364.00
2022-08-03T16:43:23.010Z,100363.00
2022-08-03T16:45:51.465Z,100368.00
2022-08-03T16:48:19.686Z,100364.00
2022-08-03T16:50:48.105Z,100360.00
2022-08-03T16:53:18.586Z,100362.00
2022-08-03T16:56:02.995Z,100353.00
2022-08-03T16:58:42.689Z,100354.00
2022-08-03T17:01:21.021Z,100358.00
2022-08-03T17:04:03.463Z,100366.00
2022-08-03T17:06:37.593Z,100365.00
2022-08-03T17:09:15.385Z,100363.00
2022-08-03T17:11:48.358Z,100364.00
2022-08-03T17:14:21.986Z,100369.00
2022-08-03T17:16:53.769Z,100375.00
2022-08-03T17:19:25.485Z,100367.00
2022-08-03T17:22:15.784Z,100372.00
2022-08-03T17:24:53.267Z,100368.00
2022-08-03T17:28:51.369Z,100374.00
2022-08-03T17:30:19.066Z,100370.00
2022-08-03T17:32:57.863Z,100377.00
2022-08-03T17:35:35.551Z,100379.00
2022-08-03T17:38:08.996Z,100376.00
2022-08-03T17:40:48.124Z,100373.00
2022-08-03T17:48:58.623Z,100371.00
2022-08-03T17:51:46.159Z,100371.00
2022-08-03T17:55:50.736Z,100372.00
2022-08-03T17:58:02.331Z,100374.00
2022-08-03T18:00:51.623Z,100375.00
2022-08-03T18:04:00.006Z,100377.00
2022-08-03T18:06:32.123Z,100375.00
2022-08-03T18:09:05.079Z,100380.00
2022-08-03T18:11:59.368Z,100376.00
2022-08-03T18:14:57.646Z,100383.00
2022-08-03T18:17:55.411Z,100377.00
2022-08-03T18:20:31.229Z,100377.00
2022-08-03T18:23:07.264Z,100382.00
2022-08-03T18:25:44.467Z,100379.00
2022-08-03T18:28:23.086Z,100376.00
2022-08-03T18:30:53.883Z,100377.00
2022-08-03T18:36:30.890Z,100371.00
2022-08-03T18:39:03.713Z,100376.00
2022-08-03T18:41:35.364Z,100374.00
2022-08-03T18:44:09.648Z,100377.00
2022-08-03T18:47:17.728Z,100374.00
2022-08-03T18:50:09.903Z,100382.00
2022-08-03T18:52:55.685Z,100376.00
2022-08-03T18:55:36.037Z,100378.00
2022-08-03T18:58:15.758Z,100382.00
2022-08-03T19:01:05.653Z,100384.00
2022-08-03T19:03:58.698Z,100391.00
2022-08-03T19:06:29.378Z,100379.00
2022-08-03T19:09:05.582Z,100382.00
2022-08-03T19:12:26.179Z,100386.00
2022-08-03T19:15:04.767Z,100390.00
2022-08-03T19:17:36.406Z,100382.00
2022-08-03T19:20:09.392Z,100385.00
2022-08-03T19:22:39.847Z,100386.00
2022-08-03T19:25:13.669Z,100384.00
2022-08-03T19:27:43.455Z,100387.00
2022-08-03T19:30:21.965Z,100387.00
2022-08-03T19:32:55.587Z,100389.00
2022-08-03T19:35:49.741Z,100383.00
2022-08-03T19:38:12.306Z,100378.00
2022-08-03T19:40:51.021Z,100383.00
2022-08-03T19:43:32.991Z,100380.00
2022-08-03T19:46:16.307Z,100382.00
2022-08-03T19:48:54.571Z,100381.00
2022-08-03T19:51:58.495Z,100386.00
2022-08-03T19:54:15.627Z,100393.00
2022-08-03T19:56:49.239Z,100389.00
2022-08-03T19:59:19.941Z,100386.00
2022-08-03T20:01:50.715Z,100393.00
2022-08-03T20:04:18.962Z,100386.00
2022-08-03T20:06:50.272Z,100380.00
2022-08-03T20:09:20.294Z,100381.00
2022-08-03T20:11:48.706Z,100390.00
2022-08-03T20:14:20.746Z,100390.00
2022-08-03T20:16:54.565Z,100387.00
2022-08-03T20:19:24.299Z,100392.00
2022-08-03T20:22:00.368Z,100390.00
2022-08-03T20:24:32.742Z,100382.00
2022-08-03T20:27:07.923Z,100384.00
2022-08-03T20:30:06.813Z,100389.00
2022-08-03T20:32:30.917Z,100386.00
2022-08-03T20:34:59.876Z,100392.00
2022-08-03T20:37:27.384Z,100395.00
2022-08-03T20:40:00.319Z,100384.00
2022-08-03T20:42:27.984Z,100390.00
2022-08-03T20:45:06.149Z,100386.00
2022-08-03T20:47:50.964Z,100386.00
2022-08-03T20:50:22.527Z,100391.00
2022-08-03T20:52:50.697Z,100384.00
2022-08-03T20:55:20.470Z,100402.00
2022-08-03T20:58:07.885Z,100396.00
2022-08-03T21:00:36.711Z,100396.00
2022-08-03T21:03:04.639Z,100389.00
2022-08-03T21:05:48.462Z,100394.00
2022-08-03T21:08:22.226Z,100393.00
2022-08-03T21:10:50.545Z,100391.00
2022-08-03T21:13:04.063Z,100377.00
2022-08-03T21:13:05.447Z,100369.00
2022-08-03T21:13:05.925Z,100370.00
2022-08-03T21:13:29.126Z,100396.00
2022-08-03T21:16:11.322Z,100405.00
2022-08-03T21:18:47.672Z,100397.00
2022-08-03T21:21:17.758Z,100397.00
2022-08-03T21:23:50.009Z,100393.00
2022-08-03T21:26:24.026Z,100392.00
2022-08-03T21:28:55.142Z,100391.00
2022-08-03T21:31:26.500Z,100384.00
2022-08-03T21:33:58.791Z,100390.00
2022-08-03T21:36:34.439Z,100387.00
2022-08-03T21:39:05.072Z,100389.00
2022-08-03T21:41:33.494Z,100389.00
2022-08-03T21:44:02.703Z,100384.00
2022-08-03T21:46:41.587Z,100382.00
2022-08-03T21:50:06.894Z,100390.00
2022-08-03T21:52:05.128Z,100389.00
2022-08-03T21:54:43.632Z,100378.00
2022-08-03T21:57:25.508Z,100383.00
2022-08-03T22:00:05.708Z,100381.00
2022-08-03T22:02:53.031Z,100371.00
2022-08-03T22:05:28.880Z,100374.00
2022-08-03T22:08:14.409Z,100391.00
2022-08-03T22:10:45.576Z,100382.00
2022-08-03T22:13:43.268Z,100384.00
2022-08-03T22:16:08.771Z,100388.00
2022-08-03T22:18:43.702Z,100380.00
2022-08-03T22:21:15.219Z,100383.00
2022-08-03T22:23:49.961Z,100381.00
2022-08-03T22:26:32.466Z,100379.00
2022-08-03T22:29:08.615Z,100383.00
2022-08-03T22:31:58.836Z,100384.00
2022-08-03T22:34:27.501Z,100386.00
2022-08-03T22:37:02.458Z,100383.00
2022-08-03T22:39:30.883Z,100390.00
2022-08-03T22:42:01.435Z,100389.00
2022-08-03T22:44:30.092Z,100390.00
2022-08-03T22:46:58.994Z,100384.00
2022-08-03T22:49:29.344Z,100386.00
2022-08-03T22:51:58.533Z,100389.00
2022-08-03T22:54:26.031Z,100391.00
2022-08-03T22:56:53.746Z,100393.00
2022-08-03T22:59:41.075Z,100392.00
2022-08-03T23:02:21.174Z,100394.00
2022-08-03T23:05:04.130Z,100384.00
2022-08-03T23:07:35.292Z,100392.00
2022-08-03T23:10:12.837Z,100392.00
2022-08-03T23:12:43.277Z,100388.00
2022-08-03T23:15:13.709Z,100381.00
2022-08-03T23:17:57.702Z,100390.00
2022-08-03T23:20:28.884Z,100381.00
2022-08-03T23:22:58.193Z,100382.00
2022-08-03T23:25:25.892Z,100383.00
2022-08-03T23:28:05.945Z,100377.00
2022-08-03T23:30:37.884Z,100380.00
2022-08-03T23:33:08.827Z,100383.00
2022-08-03T23:36:28.779Z,100384.00
2022-08-03T23:38:45.235Z,100384.00
2022-08-03T23:41:13.946Z,100380.00
2022-08-03T23:43:51.167Z,100381.00
2022-08-03T23:46:24.365Z,100374.00
2022-08-03T23:48:52.015Z,100386.00
2022-08-03T23:51:53.195Z,100382.00
2022-08-03T23:54:42.356Z,100384.00
2022-08-03T23:57:27.248Z,100375.00
